Pagrindinis puslapis
METAR-TAF:

METAR-TAF

Oro uostai :

Grenchenas, Šveicarija

platuma: 47-10-53N, ilguma: 007-24-59E, Aukštis: 430 m

Dabartinis oras

Ataskaita buvo paskelbta 35 minutes, ne 07:50 UTC
Vėjas 8 kt iš Pietvakarių
Temperatūra -1°C
Drėgmė 93%
Slėgis 1022 hPa
Matomumas 10 km arba daugiau
Apsiniaukę ne aukštis 1400 ft

METAR: LSZG 190750Z AUTO 23008KT 9999 OVC014 M01/M02 Q1022

Laikas: 09:25 (08:25 UTC)

Prognozė

Ataskaita buvo paskelbta 3 valandos ir 0 minutes, ne 05:25 UTC
Prognozė galioja nuo 19 metu 06 UTC su 19 metu 15 UTC
Vėjas 4 kt iš Pietvakarių
Matomumas 10 km arba daugiau
Apsiniaukę ne aukštis 1600 ft
Tapsmas
nuo 19 metu 08 UTC su 19 metu 11 UTC
Matomumas 10 km arba daugiau
nėra debesų žemiau 1500 m ir nėra kamuolinių lietaus debesų
Laikinai
nuo 19 metu 13 UTC su 19 metu 15 UTC
Matomumas 10 km arba daugiau
Išsisklaidę debesys ne aukštis 5000 ft

TAF: LSZG 190525Z 1906/1915 22004KT 9999 OVC016 BECMG 1908/1911 CAVOK TEMPO 1913/1915 9999 SCT050

Orai ataskaitas ir orų prognozės (METAR, TAF).

turimą stotys yra geltonos ir raudonos taškus žemėlapyje.

Perkelti pele per norėdami pamatyti stoties vardą.

Tada spustelėkite, norėdami matyti oro stebėjimo ir prognozės.

Norėdami pakeisti žemėlapį: spustelėkite ant žalios mygtukų su juodo kryžiaus žemyn,; žalią mygtuką su brūkšneliu, jei norite nutolinti; arba žalių rodyklių gretimoms žemėlapius.


METAR-TAF: